Time;durP1;ratioP1;P1;durP2;ratioP2;P2;SDS_P1;SDS_P2;PMS_P1;PMS_P2;Temp;Humidity;BMP_temperature;BMP_pressure;BME280_temperature;BME280_humidity;BME280_pressure;Samples;Min_cycle;Max_cycle;Signal;HPM_P1;HPM_P2
2023/02/05 00:01:58;;;;;;;;;;;;;;;1.27;69.52;94309.31;2050629;70;20511;-74
2023/02/05 00:04:23;;;;;;;;;;;;;;;1.32;68.48;94318.13;2050885;70;20117;-76
2023/02/05 00:06:49;;;;;;;;;;;;;;;1.05;70.43;94316.97;2050803;70;20189;-75
2023/02/05 00:09:14;;;;;;;;;;;;;;;1.16;69.44;94314.91;2050967;70;20106;-76
2023/02/05 00:11:40;;;;;;;;;;;;;;;1.18;69.79;94317.19;2051305;70;20145;-76
2023/02/05 00:14:06;;;;;;;;;;;;;;;1.13;69.31;94312.41;2051290;70;20142;-74
2023/02/05 00:16:33;;;;;;;;;;;;;;;1.04;69.39;94312.69;2051348;70;20142;-76
2023/02/05 00:19:00;;;;;;;;;;;;;;;0.88;69.47;94311.50;2051378;70;20047;-75
2023/02/05 00:21:25;;;;;;;;;;;;;;;1.03;68.87;94309.16;2051576;70;20379;-75
2023/02/05 00:23:51;;;;;;;;;;;;;;;0.99;68.26;94311.44;2051534;70;20054;-74
2023/02/05 00:26:16;;;;;;;;;;;;;;;0.79;68.48;94309.00;2051254;70;20054;-75
2023/02/05 00:28:42;;;;;;;;;;;;;;;0.63;68.80;94313.31;2048140;70;20049;-75
2023/02/05 00:31:15;;;;;;;;;;;;;;;0.70;69.58;94312.81;2051575;70;20478;-77
2023/02/05 00:33:41;;;;;;;;;;;;;;;0.73;69.88;94322.84;2051751;70;20053;-76
2023/02/05 00:36:07;;;;;;;;;;;;;;;0.74;69.98;94321.63;2051632;70;20047;-75
2023/02/05 00:38:32;;;;;;;;;;;;;;;0.67;69.27;94313.81;2048623;70;20477;-77
2023/02/05 00:40:58;;;;;;;;;;;;;;;0.75;68.22;94317.56;2051895;70;20053;-77
2023/02/05 00:43:24;;;;;;;;;;;;;;;0.66;69.17;94307.50;2048200;70;20069;-75
2023/02/05 00:45:49;;;;;;;;;;;;;;;0.66;69.14;94299.19;2051885;70;20111;-76
2023/02/05 00:48:14;;;;;;;;;;;;;;;0.59;69.70;94308.03;2048391;70;20077;-77
2023/02/05 00:50:40;;;;;;;;;;;;;;;0.64;69.19;94314.81;2048388;70;20046;-77
2023/02/05 00:53:05;;;;;;;;;;;;;;;0.43;68.94;94320.66;2045332;70;20121;-76
2023/02/05 00:55:31;;;;;;;;;;;;;;;0.43;70.76;94325.44;2051655;70;20402;-76
2023/02/05 00:57:56;;;;;;;;;;;;;;;0.34;70.17;94317.38;2048289;70;20472;-76
2023/02/05 01:00:27;;;;;;;;;;;;;;;0.41;70.94;94316.88;2048344;70;20105;-78
2023/02/05 01:02:55;;;;;;;;;;;;;;;0.42;69.65;94318.41;2051538;70;20058;-75
2023/02/05 01:05:20;;;;;;;;;;;;;;;0.34;69.48;94309.81;2051813;70;20054;-76
2023/02/05 01:07:46;;;;;;;;;;;;;;;0.34;70.86;94318.13;2048202;70;20070;-76
2023/02/05 01:10:12;;;;;;;;;;;;;;;0.38;70.51;94317.88;2051305;70;20047;-76
2023/02/05 01:12:37;;;;;;;;;;;;;;;0.35;71.00;94327.19;2048016;70;20042;-76
2023/02/05 01:15:04;;;;;;;;;;;;;;;0.38;70.37;94318.66;2048090;70;20501;-76
2023/02/05 01:17:29;;;;;;;;;;;;;;;0.28;69.96;94319.41;2051315;70;20575;-76
2023/02/05 01:19:57;;;;;;;;;;;;;;;0.24;70.40;94320.41;2047986;70;20055;-75
2023/02/05 01:22:22;;;;;;;;;;;;;;;0.14;71.15;94321.94;2047978;70;20050;-77
2023/02/05 01:24:48;;;;;;;;;;;;;;;0.23;70.88;94321.69;2051378;70;20054;-77
2023/02/05 01:27:14;;;;;;;;;;;;;;;0.29;70.26;94320.91;2051420;70;20046;-75
2023/02/05 01:29:39;;;;;;;;;;;;;;;0.23;70.23;94316.13;2051544;70;20487;-75
2023/02/05 01:32:05;;;;;;;;;;;;;;;0.20;70.94;94316.38;2051408;70;20150;-75
2023/02/05 01:34:30;;;;;;;;;;;;;;;0.11;70.69;94314.63;2051208;70;20418;-75
2023/02/05 01:36:59;;;;;;;;;;;;;;;0.18;70.49;94316.91;2047839;70;20066;-75
2023/02/05 01:39:24;;;;;;;;;;;;;;;0.24;69.92;94314.13;2047639;70;20482;-75
2023/02/05 01:41:50;;;;;;;;;;;;;;;0.10;69.44;94310.34;2051101;70;20046;-76
2023/02/05 01:44:23;;;;;;;;;;;;;;;0.06;70.56;94304.31;2048112;70;20224;-75
2023/02/05 01:46:49;;;;;;;;;;;;;;;0.14;70.99;94307.34;2051392;70;20097;-74
2023/02/05 01:49:21;;;;;;;;;;;;;;;0.03;70.03;94307.31;2045306;70;20053;-75
2023/02/05 01:51:48;;;;;;;;;;;;;;;0.00;70.73;94298.03;2051230;70;20181;-74
2023/02/05 01:54:15;;;;;;;;;;;;;;;-0.09;71.29;94296.25;2054317;70;20160;-75
2023/02/05 01:56:52;;;;;;;;;;;;;;;-0.07;71.11;94296.50;2054262;70;20097;-75
2023/02/05 01:59:25;;;;;;;;;;;;;;;-0.10;70.49;94291.19;2048132;70;20042;-77
2023/02/05 02:01:51;;;;;;;;;;;;;;;-0.06;71.13;94295.22;2051244;70;20054;-75
2023/02/05 02:04:29;;;;;;;;;;;;;;;-0.11;70.98;94282.16;2048137;70;20046;-74
2023/02/05 02:06:55;;;;;;;;;;;;;;;-0.17;70.56;94286.19;2050506;70;20054;-75
2023/02/05 02:09:20;;;;;;;;;;;;;;;-0.26;71.41;94287.19;2051020;70;20054;-74
2023/02/05 02:11:46;;;;;;;;;;;;;;;-0.14;71.08;94282.38;2051441;70;20572;-75
2023/02/05 02:14:13;;;;;;;;;;;;;;;-0.22;70.38;94286.94;2048394;70;20152;-73
2023/02/05 02:16:39;;;;;;;;;;;;;;;-0.32;71.78;94284.41;2048415;70;20043;-76
2023/02/05 02:19:08;;;;;;;;;;;;;;;-0.28;70.57;94290.44;2048117;70;20047;-76
2023/02/05 02:21:53;;;;;;;;;;;;;;;-0.32;71.27;94289.94;2051181;70;20510;-76
2023/02/05 02:24:19;;;;;;;;;;;;;;;-0.34;70.16;94288.94;2051015;70;20039;-76
2023/02/05 02:26:47;;;;;;;;;;;;;;;-0.45;70.18;94300.75;2048123;70;20042;-75
2023/02/05 02:29:21;;;;;;;;;;;;;;;-0.46;70.70;94293.66;2051164;70;20092;-75
2023/02/05 02:31:54;;;;;;;;;;;;;;;-0.35;70.59;94290.19;2047515;70;20058;-76
2023/02/05 02:34:26;;;;;;;;;;;;;;;-0.37;70.71;94296.22;2051147;70;20426;-73
2023/02/05 02:36:58;;;;;;;;;;;;;;;-0.22;70.75;94281.41;2050561;70;20047;-76
2023/02/05 02:39:26;;;;;;;;;;;;;;;-0.28;71.34;94286.91;2051330;70;20071;-77
2023/02/05 02:41:54;;;;;;;;;;;;;;;-0.45;70.24;94288.91;2047491;70;20046;-76
2023/02/05 02:44:42;;;;;;;;;;;;;;;-0.42;71.15;94280.34;2050527;70;20121;-74
2023/02/05 02:47:13;;;;;;;;;;;;;;;-0.44;70.41;94277.34;2051373;70;20059;-77
2023/02/05 02:49:42;;;;;;;;;;;;;;;-0.39;70.29;94281.38;2047616;70;20052;-76
2023/02/05 02:52:10;;;;;;;;;;;;;;;-0.40;71.00;94274.34;2047977;70;20533;-75
2023/02/05 02:54:38;;;;;;;;;;;;;;;-0.41;70.82;94270.81;2051352;70;20189;-76
2023/02/05 02:57:07;;;;;;;;;;;;;;;-0.43;70.15;94278.09;2051018;70;20379;-76
2023/02/05 02:59:35;;;;;;;;;;;;;;;-0.40;71.20;94272.31;2051224;70;20296;-75
2023/02/05 03:02:03;;;;;;;;;;;;;;;-0.59;70.23;94277.56;2050651;70;20046;-76
2023/02/05 03:04:33;;;;;;;;;;;;;;;-0.81;71.16;94272.00;2050581;70;20203;-76
2023/02/05 03:07:04;;;;;;;;;;;;;;;-0.54;71.50;94268.53;2051243;70;20093;-75
2023/02/05 03:09:50;;;;;;;;;;;;;;;-0.56;70.37;94271.03;2048121;70;20046;-74
2023/02/05 03:12:20;;;;;;;;;;;;;;;-0.65;70.44;94264.97;2051275;70;20138;-74
2023/02/05 03:14:45;;;;;;;;;;;;;;;-0.57;70.47;94264.00;2047755;70;20157;-74
2023/02/05 03:17:17;;;;;;;;;;;;;;;-0.53;71.00;94263.75;2047545;70;20086;-75
2023/02/05 03:19:44;;;;;;;;;;;;;;;-0.52;71.12;94268.78;2051165;70;20534;-75
2023/02/05 03:22:09;;;;;;;;;;;;;;;-0.60;70.08;94267.00;2050593;70;20047;-75
2023/02/05 03:24:36;;;;;;;;;;;;;;;-0.58;71.18;94261.72;2051188;70;20434;-77
2023/02/05 03:27:02;;;;;;;;;;;;;;;-0.64;71.07;94260.94;2044708;70;20054;-75
2023/02/05 03:29:34;;;;;;;;;;;;;;;-0.66;69.78;94255.94;2050554;70;20493;-74
2023/02/05 03:32:22;;;;;;;;;;;;;;;-0.77;70.34;94250.38;2047812;70;20052;-75
2023/02/05 03:35:03;;;;;;;;;;;;;;;-0.85;70.06;94255.63;2051213;70;20070;-76
2023/02/05 03:37:56;;;;;;;;;;;;;;;-0.77;70.28;94248.38;2050002;70;20081;-76
2023/02/05 03:40:35;;;;;;;;;;;;;;;-0.78;71.28;94249.63;2048023;70;20047;-76
2023/02/05 03:43:04;;;;;;;;;;;;;;;-0.76;70.85;94243.59;2050004;70;20054;-76
2023/02/05 03:45:48;;;;;;;;;;;;;;;-0.81;71.00;94247.09;2048143;70;20554;-76
2023/02/05 03:48:21;;;;;;;;;;;;;;;-0.71;70.37;94253.16;2050705;70;20051;-78
2023/02/05 03:50:53;;;;;;;;;;;;;;;-0.94;70.21;94242.03;2048683;70;20047;-76
2023/02/05 03:53:29;;;;;;;;;;;;;;;-0.86;70.36;94245.84;2047631;70;20169;-75
2023/02/05 03:55:59;;;;;;;;;;;;;;;-0.96;70.93;94244.56;2047591;70;20055;-75
2023/02/05 03:58:29;;;;;;;;;;;;;;;-0.95;71.46;94240.53;2048211;70;20506;-74
2023/02/05 04:00:55;;;;;;;;;;;;;;;-0.99;71.35;94234.47;2050277;70;20081;-75
2023/02/05 04:03:21;;;;;;;;;;;;;;;-0.91;71.00;94235.50;2048181;70;20414;-74
2023/02/05 04:05:47;;;;;;;;;;;;;;;-0.95;71.06;94234.25;2050545;70;20121;-75
2023/02/05 04:08:13;;;;;;;;;;;;;;;-1.02;70.99;94230.69;2044596;70;20062;-75
2023/02/05 04:10:44;;;;;;;;;;;;;;;-1.04;71.34;94230.44;2048477;70;20466;-77
2023/02/05 04:13:09;;;;;;;;;;;;;;;-0.98;70.77;94235.25;2050334;70;20054;-75
2023/02/05 04:15:36;;;;;;;;;;;;;;;-0.95;71.54;94229.47;2047643;70;20062;-77
2023/02/05 04:18:07;;;;;;;;;;;;;;;-1.12;71.13;94234.94;2047538;70;20051;-75
2023/02/05 04:20:32;;;;;;;;;;;;;;;-1.00;70.72;94235.00;2048346;70;20123;-76
2023/02/05 04:22:58;;;;;;;;;;;;;;;-1.15;69.88;94238.69;2047784;70;20074;-77
2023/02/05 04:25:25;;;;;;;;;;;;;;;-1.17;70.28;94238.44;2047765;70;20505;-77
2023/02/05 04:27:52;;;;;;;;;;;;;;;-1.13;71.24;94240.97;2047581;70;20058;-76
2023/02/05 04:30:18;;;;;;;;;;;;;;;-1.15;70.73;94237.94;2047600;70;20062;-76
2023/02/05 04:32:46;;;;;;;;;;;;;;;-1.11;70.49;94247.50;2048083;70;20472;-74
2023/02/05 04:35:14;;;;;;;;;;;;;;;-1.15;71.01;94235.94;2047840;70;20071;-76
2023/02/05 04:37:39;;;;;;;;;;;;;;;-1.22;70.63;94232.91;2050192;70;20061;-76
2023/02/05 04:40:05;;;;;;;;;;;;;;;-1.14;71.30;94239.47;2048102;70;20066;-75
2023/02/05 04:42:31;;;;;;;;;;;;;;;-1.11;71.16;94244.75;2051473;70;20043;-75
2023/02/05 04:44:56;;;;;;;;;;;;;;;-1.22;70.41;94241.94;2051623;70;20049;-76
2023/02/05 04:47:22;;;;;;;;;;;;;;;-1.28;70.68;94238.41;2051401;70;20400;-75
2023/02/05 04:49:47;;;;;;;;;;;;;;;-1.28;71.25;94243.94;2051156;70;20385;-76
2023/02/05 04:52:13;;;;;;;;;;;;;;;-1.39;70.35;94243.88;2051544;70;20074;-76
2023/02/05 04:54:38;;;;;;;;;;;;;;;-1.28;71.88;94246.72;2051352;70;20042;-75
2023/02/05 04:57:04;;;;;;;;;;;;;;;-1.30;71.94;94247.19;2047291;70;20146;-78
2023/02/05 04:59:30;;;;;;;;;;;;;;;-1.50;70.96;94239.06;2051344;70;20038;-74
2023/02/05 05:01:56;;;;;;;;;;;;;;;-1.44;70.81;94244.63;2051407;70;20157;-75
2023/02/05 05:04:22;;;;;;;;;;;;;;;-1.43;70.03;94240.59;2051260;70;20201;-74
2023/02/05 05:06:47;;;;;;;;;;;;;;;-1.38;69.85;94237.84;2051257;70;20059;-75
2023/02/05 05:09:13;;;;;;;;;;;;;;;-1.34;70.69;94243.16;2051199;70;20460;-75
2023/02/05 05:11:39;;;;;;;;;;;;;;;-1.56;72.57;94241.03;2050992;70;20039;-75
2023/02/05 05:14:04;;;;;;;;;;;;;;;-1.46;72.09;94250.66;2050921;70;20509;-73
2023/02/05 05:16:29;;;;;;;;;;;;;;;-1.58;72.21;94240.78;2051156;70;20038;-74
2023/02/05 05:18:55;;;;;;;;;;;;;;;-1.66;71.88;94248.00;2048183;70;20184;-74
2023/02/05 05:21:21;;;;;;;;;;;;;;;-1.89;74.02;94247.13;2051099;70;20058;-76
2023/02/05 05:23:46;;;;;;;;;;;;;;;-1.87;73.51;94250.16;2051104;70;20156;-76
2023/02/05 05:26:12;;;;;;;;;;;;;;;-1.81;73.93;94245.44;2051830;70;20438;-77
2023/02/05 05:28:38;;;;;;;;;;;;;;;-1.81;72.53;94251.69;2051972;70;20471;-75
2023/02/05 05:31:12;;;;;;;;;;;;;;;-1.68;73.49;94254.03;2051528;70;20165;-76
2023/02/05 05:33:37;;;;;;;;;;;;;;;-1.64;73.51;94246.28;2051505;70;20063;-76
2023/02/05 05:36:03;;;;;;;;;;;;;;;-1.53;72.64;94240.06;2051522;70;20423;-76
2023/02/05 05:38:29;;;;;;;;;;;;;;;-1.56;72.84;94244.56;2051407;70;20573;-75
2023/02/05 05:43:47;;;;;;;;;;;;;;;-1.48;72.61;94246.84;2051401;70;20053;-76
2023/02/05 05:46:31;;;;;;;;;;;;;;;-1.53;72.38;94251.09;2051482;70;20082;-76
2023/02/05 05:48:57;;;;;;;;;;;;;;;-1.62;74.03;94248.53;2051456;70;20055;-77
2023/02/05 05:51:24;;;;;;;;;;;;;;;-1.55;72.55;94248.09;2051674;70;20134;-77
2023/02/05 05:53:50;;;;;;;;;;;;;;;-1.39;72.10;94246.66;2051457;70;20487;-75
2023/02/05 05:56:15;;;;;;;;;;;;;;;-1.42;71.81;94236.56;2051511;70;20054;-75
2023/02/05 05:58:41;;;;;;;;;;;;;;;-1.39;71.95;94233.59;2051284;70;20051;-76
2023/02/05 06:01:07;;;;;;;;;;;;;;;-1.56;74.23;94238.28;2051553;70;20066;-78
2023/02/05 06:03:32;;;;;;;;;;;;;;;-1.42;73.16;94240.13;2051613;70;20157;-78
2023/02/05 06:06:02;;;;;;;;;;;;;;;-1.41;72.30;94233.34;2051525;70;20196;-78
2023/02/05 06:08:28;;;;;;;;;;;;;;;-1.44;71.96;94239.09;2051311;70;20534;-76
2023/02/05 06:10:54;;;;;;;;;;;;;;;-1.43;71.95;94249.63;2051444;70;20154;-75
2023/02/05 06:13:19;;;;;;;;;;;;;;;-1.45;71.13;94246.63;2051332;70;20190;-75
2023/02/05 06:15:46;;;;;;;;;;;;;;;-1.43;70.56;94243.34;2051326;70;20425;-75
2023/02/05 06:18:11;;;;;;;;;;;;;;;-1.52;70.76;94244.31;2051466;70;20042;-75
2023/02/05 06:20:37;;;;;;;;;;;;;;;-1.47;71.60;94243.59;2051345;70;20091;-75
2023/02/05 06:23:02;;;;;;;;;;;;;;;-1.42;71.92;94242.09;2051408;70;20134;-77
2023/02/05 06:25:27;;;;;;;;;;;;;;;-1.44;70.93;94239.84;2048055;70;20137;-77
2023/02/05 06:27:53;;;;;;;;;;;;;;;-1.69;71.76;94241.50;2051399;70;20084;-75
2023/02/05 06:30:18;;;;;;;;;;;;;;;-1.54;71.85;94246.84;2051578;70;20043;-75
2023/02/05 06:32:44;;;;;;;;;;;;;;;-1.48;71.64;94250.38;2048284;70;20070;-76
2023/02/05 06:35:09;;;;;;;;;;;;;;;-1.40;71.33;94247.91;2051477;70;20053;-78
2023/02/05 06:37:35;;;;;;;;;;;;;;;-1.69;72.15;94238.72;2051166;70;20049;-75
2023/02/05 06:40:00;;;;;;;;;;;;;;;-1.57;71.67;94248.56;2051498;70;20049;-76
2023/02/05 06:42:26;;;;;;;;;;;;;;;-1.61;71.65;94250.81;2051381;70;20046;-75
2023/02/05 06:44:51;;;;;;;;;;;;;;;-1.55;72.24;94254.38;2048080;70;20078;-76
2023/02/05 06:47:16;;;;;;;;;;;;;;;-1.47;71.09;94259.41;2051349;70;20152;-76
2023/02/05 06:49:42;;;;;;;;;;;;;;;-1.60;71.61;94259.88;2048085;70;20117;-74
2023/02/05 06:52:07;;;;;;;;;;;;;;;-1.61;71.38;94272.91;2051386;70;20082;-76
2023/02/05 06:54:33;;;;;;;;;;;;;;;-1.66;71.17;94272.88;2051414;70;20137;-76
2023/02/05 06:56:58;;;;;;;;;;;;;;;-1.56;72.27;94277.72;2051246;70;20121;-77
2023/02/05 06:59:23;;;;;;;;;;;;;;;-1.69;71.77;94271.88;2051197;70;20158;-76
2023/02/05 07:01:49;;;;;;;;;;;;;;;-1.65;71.93;94277.13;2051950;70;20047;-76
2023/02/05 07:04:16;;;;;;;;;;;;;;;-1.52;72.40;94273.94;2051473;70;20133;-76
2023/02/05 07:06:41;;;;;;;;;;;;;;;-1.52;71.36;94279.47;2051332;70;20511;-76
2023/02/05 07:09:07;;;;;;;;;;;;;;;-1.60;71.33;94277.19;2051282;70;20171;-75
2023/02/05 07:11:32;;;;;;;;;;;;;;;-1.62;71.89;94270.63;2051273;70;20045;-75
2023/02/05 07:14:01;;;;;;;;;;;;;;;-1.62;71.87;94274.16;2051229;70;20138;-76
2023/02/05 07:16:26;;;;;;;;;;;;;;;-1.60;71.78;94276.44;2051338;70;20057;-76
2023/02/05 07:18:52;;;;;;;;;;;;;;;-1.57;71.58;94280.97;2051256;70;20042;-75
2023/02/05 07:21:17;;;;;;;;;;;;;;;-1.48;72.05;94282.78;2051854;70;20109;-75
2023/02/05 07:23:43;;;;;;;;;;;;;;;-1.47;71.35;94281.50;2051766;70;20166;-76
2023/02/05 07:26:10;;;;;;;;;;;;;;;-1.48;71.39;94274.47;2051756;70;20043;-76
2023/02/05 07:28:35;;;;;;;;;;;;;;;-1.40;72.06;94281.06;2048049;70;20109;-75
2023/02/05 07:31:01;;;;;;;;;;;;;;;-1.32;71.18;94280.09;2051793;70;20075;-74
2023/02/05 07:33:27;;;;;;;;;;;;;;;-1.38;71.77;94284.06;2051870;70;20042;-76
2023/02/05 07:35:53;;;;;;;;;;;;;;;-1.30;71.78;94280.34;2051795;70;20053;-76
2023/02/05 07:38:19;;;;;;;;;;;;;;;-1.26;71.99;94279.38;2051793;70;20075;-76
2023/02/05 07:40:44;;;;;;;;;;;;;;;-1.39;71.87;94263.97;2051772;70;20142;-76
2023/02/05 07:43:09;;;;;;;;;;;;;;;-1.17;71.36;94284.69;2048359;70;20470;-75
2023/02/05 07:45:35;;;;;;;;;;;;;;;-1.16;71.30;94300.00;2051800;70;20202;-75
2023/02/05 07:48:01;;;;;;;;;;;;;;;-1.17;70.74;94290.22;2051781;70;20046;-76
2023/02/05 07:50:26;;;;;;;;;;;;;;;-1.23;71.83;94289.44;2051739;70;20050;-75
2023/02/05 07:52:52;;;;;;;;;;;;;;;-1.38;71.24;94270.25;2048438;70;20051;-76
2023/02/05 07:55:17;;;;;;;;;;;;;;;-1.31;71.02;94278.09;2051787;70;20058;-76
2023/02/05 07:57:43;;;;;;;;;;;;;;;-1.31;71.00;94273.31;2051439;70;20050;-74
2023/02/05 08:00:10;;;;;;;;;;;;;;;-1.25;71.00;94272.56;2048491;70;20128;-74
2023/02/05 08:02:40;;;;;;;;;;;;;;;-1.35;71.20;94270.03;2051701;70;20081;-74
2023/02/05 08:05:06;;;;;;;;;;;;;;;-1.35;71.40;94261.75;2048334;70;20479;-74
2023/02/05 08:07:31;;;;;;;;;;;;;;;-1.20;70.92;94252.50;2051707;70;20039;-74
2023/02/05 08:09:56;;;;;;;;;;;;;;;-1.22;70.55;94249.50;2051552;70;20039;-75
2023/02/05 08:12:22;;;;;;;;;;;;;;;-1.21;71.01;94246.22;2048289;70;20908;-74
2023/02/05 08:14:48;;;;;;;;;;;;;;;-1.11;69.90;94255.78;2048279;70;20039;-74
2023/02/05 08:17:13;;;;;;;;;;;;;;;-1.09;71.09;94239.47;2051614;70;20514;-74
2023/02/05 08:19:39;;;;;;;;;;;;;;;-1.03;70.98;94247.78;2048537;70;20052;-75
2023/02/05 08:22:04;;;;;;;;;;;;;;;-1.49;71.26;94248.88;2051759;70;20118;-75
2023/02/05 08:24:30;;;;;;;;;;;;;;;-1.25;70.82;94247.72;2051644;70;20050;-75
2023/02/05 08:26:55;;;;;;;;;;;;;;;-1.21;70.55;94239.94;2051886;70;20051;-74
2023/02/05 08:29:21;;;;;;;;;;;;;;;-1.17;70.57;94234.94;2051613;70;20510;-78
2023/02/05 08:31:47;;;;;;;;;;;;;;;-1.00;69.89;94230.22;2051955;70;20052;-78
2023/02/05 08:34:14;;;;;;;;;;;;;;;-1.10;70.15;94226.16;2051758;70;20498;-76
2023/02/05 08:36:39;;;;;;;;;;;;;;;-1.12;69.55;94234.19;2052060;70;20057;-76
2023/02/05 08:39:05;;;;;;;;;;;;;;;-0.67;70.90;94235.06;2052048;70;20054;-75
2023/02/05 08:41:30;;;;;;;;;;;;;;;-0.10;71.27;94239.34;2051689;70;20046;-76
2023/02/05 08:43:56;;;;;;;;;;;;;;;0.44;70.86;94239.03;2051619;70;20046;-75
2023/02/05 08:46:24;;;;;;;;;;;;;;;0.82;71.66;94250.50;2051637;70;20569;-75
2023/02/05 08:48:50;;;;;;;;;;;;;;;1.04;69.73;94257.97;2051550;70;20483;-75
2023/02/05 08:51:15;;;;;;;;;;;;;;;1.43;70.22;94248.69;2051557;70;20034;-76
2023/02/05 08:53:42;;;;;;;;;;;;;;;1.39;67.90;94234.34;2048346;70;20046;-74
2023/02/05 08:56:09;;;;;;;;;;;;;;;1.54;67.18;94237.50;2051675;70;20114;-77
2023/02/05 08:58:35;;;;;;;;;;;;;;;1.86;67.08;94226.69;2051561;70;20066;-76
2023/02/05 09:01:02;;;;;;;;;;;;;;;2.31;64.06;94208.88;2051780;70;20056;-76
2023/02/05 09:03:29;;;;;;;;;;;;;;;1.92;62.20;94212.75;2051519;70;20509;-73
2023/02/05 09:05:55;;;;;;;;;;;;;;;1.95;61.87;94211.72;2051486;70;20187;-76
2023/02/05 09:08:50;;;;;;;;;;;;;;;2.71;62.87;94209.97;2051972;70;20043;-75
2023/02/05 09:11:20;;;;;;;;;;;;;;;2.42;61.55;94211.53;2051983;70;20049;-75
2023/02/05 09:13:45;;;;;;;;;;;;;;;3.31;63.60;94220.84;2051507;70;20042;-77
2023/02/05 09:16:10;;;;;;;;;;;;;;;3.84;60.73;94223.84;2051695;70;20494;-77
2023/02/05 09:18:36;;;;;;;;;;;;;;;3.90;60.70;94218.97;2051552;70;20039;-76
2023/02/05 09:21:04;;;;;;;;;;;;;;;4.20;60.06;94218.72;2051682;70;20047;-76
2023/02/05 09:23:29;;;;;;;;;;;;;;;4.27;58.38;94218.09;2051591;70;20131;-76
2023/02/05 09:25:57;;;;;;;;;;;;;;;4.44;57.48;94208.66;2051604;70;20375;-76
2023/02/05 09:28:22;;;;;;;;;;;;;;;4.70;54.36;94205.16;2051525;70;20122;-76
2023/02/05 09:30:48;;;;;;;;;;;;;;;5.08;55.10;94203.63;2051541;70;20038;-77
2023/02/05 09:33:13;;;;;;;;;;;;;;;4.99;54.00;94200.50;2048343;70;20043;-77
2023/02/05 09:35:39;;;;;;;;;;;;;;;5.10;52.72;94206.63;2051590;70;20050;-77
2023/02/05 09:38:04;;;;;;;;;;;;;;;5.20;50.76;94200.59;2051569;70;20074;-77
2023/02/05 09:40:33;;;;;;;;;;;;;;;4.52;52.45;94201.91;2051568;70;20045;-77
2023/02/05 09:43:02;;;;;;;;;;;;;;;5.10;53.85;94197.50;2051370;70;20138;-75
2023/02/05 09:45:33;;;;;;;;;;;;;;;5.48;52.35;94195.16;2051576;70;20434;-77
2023/02/05 09:48:18;;;;;;;;;;;;;;;6.98;51.17;94191.22;2051684;70;20402;-77
2023/02/05 09:50:44;;;;;;;;;;;;;;;6.79;48.50;94186.63;2051631;70;20085;-77
2023/02/05 09:53:15;;;;;;;;;;;;;;;6.46;46.69;94179.88;2051623;70;20047;-77
2023/02/05 09:55:43;;;;;;;;;;;;;;;6.64;46.52;94180.91;2051550;70;20045;-77
2023/02/05 09:58:23;;;;;;;;;;;;;;;6.56;45.94;94177.34;2051462;70;20190;-77
2023/02/05 10:00:52;;;;;;;;;;;;;;;7.05;45.96;94168.84;2051611;70;20138;-77
2023/02/05 10:03:17;;;;;;;;;;;;;;;7.23;45.66;94164.25;2051542;70;20046;-74
2023/02/05 10:05:55;;;;;;;;;;;;;;;6.90;44.73;94162.41;2051516;70;20046;-76
2023/02/05 10:08:20;;;;;;;;;;;;;;;7.27;45.13;94164.66;2051518;70;20046;-76
2023/02/05 10:10:47;;;;;;;;;;;;;;;7.34;45.13;94160.38;2048768;70;20045;-73
2023/02/05 10:13:13;;;;;;;;;;;;;;;6.88;45.05;94152.53;2051691;70;20134;-77
2023/02/05 10:15:53;;;;;;;;;;;;;;;6.69;44.68;94148.47;2051522;70;20047;-77
2023/02/05 10:18:37;;;;;;;;;;;;;;;6.11;47.29;94148.47;2051518;70;20145;-73
2023/02/05 10:21:20;;;;;;;;;;;;;;;6.51;46.21;94136.28;2051533;70;20081;-77
2023/02/05 10:24:05;;;;;;;;;;;;;;;6.90;44.92;94134.44;2051601;70;20463;-77
2023/02/05 10:26:38;;;;;;;;;;;;;;;6.81;44.85;94127.28;2051418;70;20050;-79
2023/02/05 10:29:04;;;;;;;;;;;;;;;6.87;43.99;94123.03;2051326;70;20441;-74
2023/02/05 10:31:35;;;;;;;;;;;;;;;6.71;44.29;94117.91;2051467;70;20138;-76
2023/02/05 10:34:21;;;;;;;;;;;;;;;6.30;45.08;94122.31;2051415;70;20410;-74
2023/02/05 10:36:49;;;;;;;;;;;;;;;6.30;44.47;94122.31;2046130;70;20057;-76
2023/02/05 10:39:16;;;;;;;;;;;;;;;5.21;45.82;94107.91;2051591;70;20071;-75
2023/02/05 10:41:43;;;;;;;;;;;;;;;5.19;47.08;94104.94;2053363;70;20046;-74
2023/02/05 10:44:19;;;;;;;;;;;;;;;5.71;47.30;94092.00;2051631;70;20057;-76
2023/02/05 10:46:54;;;;;;;;;;;;;;;5.80;46.06;94091.53;2051491;70;20086;-75
2023/02/05 10:49:22;;;;;;;;;;;;;;;5.95;46.07;94090.94;2051527;70;20541;-75
2023/02/05 10:51:48;;;;;;;;;;;;;;;6.01;46.83;94094.34;2051364;70;20054;-79
2023/02/05 10:54:24;;;;;;;;;;;;;;;6.06;46.59;94093.44;2051380;70;20054;-76
2023/02/05 10:56:50;;;;;;;;;;;;;;;6.16;46.06;94087.38;2051383;70;20043;-76
2023/02/05 10:59:21;;;;;;;;;;;;;;;5.53;46.28;94090.19;2051443;70;20047;-75
2023/02/05 11:01:47;;;;;;;;;;;;;;;4.89;48.49;94085.78;2051379;70;20113;-75
2023/02/05 11:04:15;;;;;;;;;;;;;;;4.88;47.65;94073.13;2051498;70;20486;-78
2023/02/05 11:06:44;;;;;;;;;;;;;;;5.36;47.02;94065.47;2051328;70;20113;-79
2023/02/05 11:09:26;;;;;;;;;;;;;;;5.53;46.76;94059.44;2051479;70;20047;-81
2023/02/05 11:11:51;;;;;;;;;;;;;;;5.52;47.03;94046.78;2051280;70;20043;-77
2023/02/05 11:14:39;;;;;;;;;;;;;;;5.50;46.18;94044.53;2051159;70;20501;-77
2023/02/05 11:17:19;;;;;;;;;;;;;;;5.16;47.00;94046.63;2051312;70;20086;-75
2023/02/05 11:19:55;;;;;;;;;;;;;;;5.20;47.00;94036.63;2051265;70;20074;-74
2023/02/05 11:22:32;;;;;;;;;;;;;;;5.58;46.91;94034.16;2051259;70;20149;-75
2023/02/05 11:25:09;;;;;;;;;;;;;;;5.67;47.07;94034.97;2051417;70;20050;-79
2023/02/05 11:27:35;;;;;;;;;;;;;;;5.28;46.78;94037.44;2051140;70;20062;-78
2023/02/05 11:30:17;;;;;;;;;;;;;;;5.55;46.79;94035.28;2051323;70;20039;-77
2023/02/05 11:32:44;;;;;;;;;;;;;;;5.20;46.74;94031.03;2051424;70;20050;-80
2023/02/05 11:35:19;;;;;;;;;;;;;;;4.80;48.11;94044.38;2051418;70;20050;-76
2023/02/05 11:37:46;;;;;;;;;;;;;;;5.27;47.37;94044.34;2051160;70;20066;-75
2023/02/05 11:40:38;;;;;;;;;;;;;;;5.64;47.18;94044.47;2051185;70;20130;-74
2023/02/05 11:43:16;;;;;;;;;;;;;;;5.13;48.37;94048.44;2050811;70;20073;-79
2023/02/05 11:45:46;;;;;;;;;;;;;;;4.93;48.92;94043.59;2050772;70;20047;-76
2023/02/05 11:48:30;;;;;;;;;;;;;;;4.74;49.07;94040.97;2051791;70;20034;-78
2023/02/05 11:50:55;;;;;;;;;;;;;;;4.88;48.44;94044.47;2051436;70;20058;-78
2023/02/05 11:53:22;;;;;;;;;;;;;;;4.58;49.91;94046.38;2051479;70;20050;-76
2023/02/05 11:55:53;;;;;;;;;;;;;;;4.96;49.51;94060.03;2051482;70;20046;-78
2023/02/05 11:58:20;;;;;;;;;;;;;;;5.26;49.32;94065.16;2051198;70;20050;-80
2023/02/05 12:00:49;;;;;;;;;;;;;;;5.13;49.05;94048.44;2051351;70;20419;-77
2023/02/05 12:03:16;;;;;;;;;;;;;;;4.99;48.60;94053.34;2051222;70;20082;-80
2023/02/05 12:05:46;;;;;;;;;;;;;;;5.37;48.14;94066.94;2051467;70;20082;-79
2023/02/05 12:08:17;;;;;;;;;;;;;;;5.04;47.65;94055.28;2048831;70;20171;-75
2023/02/05 12:10:51;;;;;;;;;;;;;;;4.37;48.51;94055.94;2052626;70;20050;-81
2023/02/05 12:13:22;;;;;;;;;;;;;;;4.97;48.67;94061.50;2048749;70;20126;-81
2023/02/05 12:15:48;;;;;;;;;;;;;;;4.51;48.17;94060.97;2051967;70;20042;-76
2023/02/05 12:18:32;;;;;;;;;;;;;;;4.50;49.90;94053.91;2051711;70;20090;-76
2023/02/05 12:21:09;;;;;;;;;;;;;;;4.30;50.91;94046.19;2051756;70;20047;-77
2023/02/05 12:23:58;;;;;;;;;;;;;;;4.47;50.96;94043.81;2051720;70;20073;-74
2023/02/05 12:26:33;;;;;;;;;;;;;;;4.47;51.06;94037.50;2051301;70;20525;-76
2023/02/05 12:29:02;;;;;;;;;;;;;;;4.55;50.70;94029.97;2053712;70;20057;-74
2023/02/05 12:31:47;;;;;;;;;;;;;;;4.92;49.91;94028.16;2052253;70;20494;-75
2023/02/05 12:34:12;;;;;;;;;;;;;;;5.12;50.28;94019.03;2051683;70;20042;-75
2023/02/05 12:36:38;;;;;;;;;;;;;;;5.13;49.83;94012.16;2051520;70;20053;-77
2023/02/05 12:39:03;;;;;;;;;;;;;;;5.35;49.71;94010.88;2051609;70;20091;-78
2023/02/05 12:41:43;;;;;;;;;;;;;;;5.52;48.76;94004.88;2051611;70;20071;-77
2023/02/05 12:44:29;;;;;;;;;;;;;;;4.83;49.40;94010.56;2051522;70;20121;-80
2023/02/05 12:46:57;;;;;;;;;;;;;;;4.78;50.25;94016.28;2051706;70;20070;-78
2023/02/05 12:49:32;;;;;;;;;;;;;;;4.56;50.64;94001.53;2048522;70;20137;-74
2023/02/05 12:51:58;;;;;;;;;;;;;;;4.65;49.35;94011.50;2051220;70;20057;-78
2023/02/05 12:54:23;;;;;;;;;;;;;;;4.87;49.39;94013.03;2051706;70;20078;-76
2023/02/05 12:56:54;;;;;;;;;;;;;;;5.18;48.76;94002.94;2051741;70;20038;-74
2023/02/05 12:59:30;;;;;;;;;;;;;;;5.37;48.59;94010.34;2051576;70;20524;-77
2023/02/05 13:02:03;;;;;;;;;;;;;;;4.88;49.58;94013.78;2051661;70;20042;-78
2023/02/05 13:04:48;;;;;;;;;;;;;;;4.87;49.19;94013.03;2051846;70;20043;-79